Time;durP1;ratioP1;P1;durP2;ratioP2;P2;SDS_P1;SDS_P2;PMS_P1;PMS_P2;Temp;Humidity;BMP_temperature;BMP_pressure;BME280_temperature;BME280_humidity;BME280_pressure;Samples;Min_cycle;Max_cycle;Signal;HPM_P1;HPM_P2
2023/12/28 00:01:29;;;;;;;;;;;18.70;62.20;;;;;;5046144;28;43024;-80
2023/12/28 00:03:55;;;;;;;;;;;18.70;63.50;;;;;;5047123;28;42942;-82
2023/12/28 00:06:20;;;;;;;;;;;18.70;63.50;;;;;;5046210;28;43017;-85
2023/12/28 00:08:48;;;;;;;;;;;18.70;63.20;;;;;;5047279;28;42977;-83
2023/12/28 00:11:14;;;;;;;;;;;19.00;61.90;;;;;;5043611;28;43112;-81
2023/12/28 00:13:39;;;;;;;;;;;19.00;63.60;;;;;;5047079;28;42894;-85
2023/12/28 00:16:05;;;;;;;;;;;18.70;62.50;;;;;;5049593;28;44283;-85
2023/12/28 00:18:30;;;;;;;;;;;18.80;62.20;;;;;;5047844;28;42996;-83
2023/12/28 00:20:56;;;;;;;;;;;18.70;62.20;;;;;;5047532;28;42955;-80
2023/12/28 00:23:22;;;;;;;;;;;18.70;62.20;;;;;;5047650;28;43174;-82
2023/12/28 00:25:47;;;;;;;;;;;18.70;61.60;;;;;;5047338;28;43521;-84
2023/12/28 00:28:13;;;;;;;;;;;18.80;62.30;;;;;;5047337;28;42913;-85
2023/12/28 00:30:38;;;;;;;;;;;18.70;63.10;;;;;;5045828;28;42897;-84
2023/12/28 00:33:04;;;;;;;;;;;18.60;63.80;;;;;;5046784;28;43114;-87
2023/12/28 00:35:29;;;;;;;;;;;18.60;62.80;;;;;;5046861;28;43921;-86
2023/12/28 00:37:55;;;;;;;;;;;18.70;63.40;;;;;;5047500;28;42890;-83
2023/12/28 00:40:21;;;;;;;;;;;18.80;63.20;;;;;;5045778;28;42991;-85
2023/12/28 00:42:47;;;;;;;;;;;18.70;63.50;;;;;;5045362;28;42805;-84
2023/12/28 00:45:13;;;;;;;;;;;18.70;62.90;;;;;;5046526;28;43736;-85
2023/12/28 00:47:39;;;;;;;;;;;18.30;62.50;;;;;;5045786;28;43645;-85
2023/12/28 00:50:04;;;;;;;;;;;18.80;62.90;;;;;;5046072;28;43298;-85
2023/12/28 00:52:30;;;;;;;;;;;18.70;62.90;;;;;;5046386;28;42989;-85
2023/12/28 00:54:55;;;;;;;;;;;18.70;64.10;;;;;;5046081;28;42957;-86
2023/12/28 00:57:21;;;;;;;;;;;18.70;62.80;;;;;;5046373;28;43004;-86
2023/12/28 00:59:47;;;;;;;;;;;18.60;62.70;;;;;;5047062;28;43071;-85
2023/12/28 01:02:12;;;;;;;;;;;18.80;63.10;;;;;;5046023;28;42969;-84
2023/12/28 01:04:38;;;;;;;;;;;18.80;62.80;;;;;;5045602;28;43760;-84
2023/12/28 01:07:05;;;;;;;;;;;18.60;62.80;;;;;;5046252;28;42868;-85
2023/12/28 01:09:32;;;;;;;;;;;18.80;62.90;;;;;;5046589;28;43734;-86
2023/12/28 01:11:58;;;;;;;;;;;18.60;62.90;;;;;;5046704;28;43028;-86
2023/12/28 01:14:23;;;;;;;;;;;18.60;62.90;;;;;;5046173;28;43064;-86
2023/12/28 01:16:49;;;;;;;;;;;18.60;62.80;;;;;;5046148;28;42804;-86
2023/12/28 01:19:15;;;;;;;;;;;18.80;62.40;;;;;;5045695;28;42891;-84
2023/12/28 01:21:40;;;;;;;;;;;18.80;62.50;;;;;;5046612;28;42900;-85
2023/12/28 01:24:06;;;;;;;;;;;18.80;63.30;;;;;;5045658;28;42863;-84
2023/12/28 01:26:31;;;;;;;;;;;18.90;62.70;;;;;;5046377;28;43064;-84
2023/12/28 01:28:57;;;;;;;;;;;18.90;62.70;;;;;;5045887;28;43271;-84
2023/12/28 01:31:22;;;;;;;;;;;18.80;62.60;;;;;;5046397;28;42994;-86
2023/12/28 01:33:48;;;;;;;;;;;18.70;62.60;;;;;;5045557;28;42979;-80
2023/12/28 01:36:17;;;;;;;;;;;18.80;61.90;;;;;;5045890;28;43112;-86
2023/12/28 01:38:43;;;;;;;;;;;18.70;61.20;;;;;;5045428;28;44576;-86
2023/12/28 01:41:08;;;;;;;;;;;18.70;61.80;;;;;;5046221;28;42952;-84
2023/12/28 01:43:34;;;;;;;;;;;18.60;61.00;;;;;;5045711;28;43692;-82
2023/12/28 01:45:59;;;;;;;;;;;18.80;61.70;;;;;;5045924;28;43006;-84
2023/12/28 01:48:25;;;;;;;;;;;18.80;61.70;;;;;;5045339;28;44499;-83
2023/12/28 01:50:51;;;;;;;;;;;18.70;61.60;;;;;;5045530;28;42946;-84
2023/12/28 01:53:17;;;;;;;;;;;18.70;61.70;;;;;;5045620;28;43456;-84
2023/12/28 01:55:43;;;;;;;;;;;18.80;61.70;;;;;;5045440;28;42993;-83
2023/12/28 01:58:08;;;;;;;;;;;18.70;61.50;;;;;;5045279;28;42903;-83
2023/12/28 02:00:36;;;;;;;;;;;18.70;61.50;;;;;;5045589;28;43285;-83
2023/12/28 02:03:02;;;;;;;;;;;18.70;60.90;;;;;;5043803;28;43509;-84
2023/12/28 02:05:28;;;;;;;;;;;18.70;61.00;;;;;;5045056;28;42923;-84
2023/12/28 02:07:53;;;;;;;;;;;18.70;61.00;;;;;;5045341;28;43589;-84
2023/12/28 02:10:19;;;;;;;;;;;18.70;61.50;;;;;;5045212;28;42866;-84
2023/12/28 02:12:44;;;;;;;;;;;18.70;61.00;;;;;;5042907;28;43072;-83
2023/12/28 02:15:10;;;;;;;;;;;18.90;61.80;;;;;;5045503;28;43043;-85
2023/12/28 02:17:38;;;;;;;;;;;18.80;61.00;;;;;;5045744;28;43939;-87
2023/12/28 02:20:06;;;;;;;;;;;18.70;61.60;;;;;;5045254;28;42993;-84
2023/12/28 02:22:32;;;;;;;;;;;18.80;61.30;;;;;;5043995;28;43532;-86
2023/12/28 02:25:11;;;;;;;;;;;18.70;61.80;;;;;;5046177;28;42983;-86
2023/12/28 02:27:46;;;;;;;;;;;18.80;60.80;;;;;;5045108;28;43303;-80
2023/12/28 02:30:12;;;;;;;;;;;18.80;60.80;;;;;;5044201;28;43085;-83
2023/12/28 02:32:49;;;;;;;;;;;18.70;61.10;;;;;;5045837;28;44048;-85
2023/12/28 02:35:20;;;;;;;;;;;18.80;61.30;;;;;;5043068;28;42887;-83
2023/12/28 02:37:47;;;;;;;;;;;18.70;60.80;;;;;;5038853;28;43648;-84
2023/12/28 02:40:14;;;;;;;;;;;18.70;61.60;;;;;;5035383;28;42882;-85
2023/12/28 02:42:40;;;;;;;;;;;18.50;60.80;;;;;;5044346;28;43000;-83
2023/12/28 02:45:06;;;;;;;;;;;18.70;61.00;;;;;;5045520;28;42919;-83
2023/12/28 02:47:31;;;;;;;;;;;18.70;61.40;;;;;;5042528;28;44858;-84
2023/12/28 02:49:59;;;;;;;;;;;18.60;61.50;;;;;;5044119;28;43010;-84
2023/12/28 02:52:24;;;;;;;;;;;18.70;61.70;;;;;;5044626;28;43392;-85
2023/12/28 02:54:50;;;;;;;;;;;18.50;61.50;;;;;;5045030;28;43101;-86
2023/12/28 02:57:18;;;;;;;;;;;18.70;61.00;;;;;;5045019;28;44054;-85
2023/12/28 02:59:46;;;;;;;;;;;18.70;61.60;;;;;;5044578;28;42834;-85
2023/12/28 03:02:12;;;;;;;;;;;18.60;60.60;;;;;;5042354;28;43596;-85
2023/12/28 03:04:37;;;;;;;;;;;18.70;61.60;;;;;;5039261;28;43057;-86
2023/12/28 03:07:04;;;;;;;;;;;18.60;60.90;;;;;;5043891;28;43567;-84
2023/12/28 03:09:29;;;;;;;;;;;18.70;61.50;;;;;;5043647;28;42905;-86
2023/12/28 03:11:55;;;;;;;;;;;18.70;61.50;;;;;;5042190;28;43722;-85
2023/12/28 03:14:21;;;;;;;;;;;18.60;61.60;;;;;;5044410;28;42930;-83
2023/12/28 03:16:46;;;;;;;;;;;18.70;61.50;;;;;;5044217;28;43350;-85
2023/12/28 03:19:12;;;;;;;;;;;18.70;61.50;;;;;;5043710;28;42904;-87
2023/12/28 03:21:40;;;;;;;;;;;18.70;61.60;;;;;;5043199;28;43994;-86
2023/12/28 03:24:06;;;;;;;;;;;18.80;61.20;;;;;;5044158;28;43154;-85
2023/12/28 03:26:31;;;;;;;;;;;18.70;61.60;;;;;;5042628;28;44581;-87
2023/12/28 03:28:57;;;;;;;;;;;18.60;61.60;;;;;;5042833;28;42903;-84
2023/12/28 03:31:23;;;;;;;;;;;18.80;61.30;;;;;;5042185;28;44594;-86
2023/12/28 03:33:48;;;;;;;;;;;18.70;61.80;;;;;;5043601;28;42932;-85
2023/12/28 03:36:18;;;;;;;;;;;18.80;61.80;;;;;;5043105;28;43567;-86
2023/12/28 03:38:43;;;;;;;;;;;18.70;60.70;;;;;;5042865;28;42935;-85
2023/12/28 03:41:16;;;;;;;;;;;18.60;61.90;;;;;;5043695;28;43354;-85
2023/12/28 03:43:41;;;;;;;;;;;18.70;61.90;;;;;;5043053;28;43176;-87
2023/12/28 03:46:07;;;;;;;;;;;18.50;61.90;;;;;;5043302;28;43574;-86
2023/12/28 03:48:32;;;;;;;;;;;18.80;62.10;;;;;;5042407;28;43129;-86
2023/12/28 03:50:58;;;;;;;;;;;18.60;62.40;;;;;;5043756;28;42961;-83
2023/12/28 03:53:24;;;;;;;;;;;18.70;62.50;;;;;;5043099;28;42927;-87
2023/12/28 03:55:50;;;;;;;;;;;18.60;62.50;;;;;;5043941;28;43456;-83
2023/12/28 03:58:15;;;;;;;;;;;18.60;62.00;;;;;;5043177;28;42997;-85
2023/12/28 04:00:41;;;;;;;;;;;18.60;61.90;;;;;;5043711;28;42993;-80
2023/12/28 04:03:06;;;;;;;;;;;18.70;61.80;;;;;;5042976;28;42958;-83
2023/12/28 04:05:32;;;;;;;;;;;18.60;62.10;;;;;;5043994;28;43309;-83
2023/12/28 04:07:57;;;;;;;;;;;18.60;61.50;;;;;;5043189;28;42903;-85
2023/12/28 04:10:30;;;;;;;;;;;18.50;61.50;;;;;;5043789;28;42971;-80
2023/12/28 04:12:57;;;;;;;;;;;18.20;61.30;;;;;;5041511;28;42999;-86
2023/12/28 04:15:23;;;;;;;;;;;18.70;62.30;;;;;;5044450;28;43651;-85
2023/12/28 04:17:49;;;;;;;;;;;18.60;61.80;;;;;;5046550;28;42888;-85
2023/12/28 04:20:15;;;;;;;;;;;18.60;62.10;;;;;;5046352;28;42835;-85
2023/12/28 04:22:40;;;;;;;;;;;18.70;61.80;;;;;;5046004;28;42910;-85
2023/12/28 04:25:06;;;;;;;;;;;18.90;61.90;;;;;;5046461;28;44530;-84
2023/12/28 04:27:31;;;;;;;;;;;18.50;61.80;;;;;;5046753;28;42972;-85
2023/12/28 04:29:57;;;;;;;;;;;18.60;62.20;;;;;;5046353;28;43027;-83
2023/12/28 04:32:24;;;;;;;;;;;18.60;61.60;;;;;;5046058;28;42927;-82
2023/12/28 04:34:49;;;;;;;;;;;18.70;61.70;;;;;;5046620;28;42939;-86
2023/12/28 04:37:15;;;;;;;;;;;18.60;61.70;;;;;;5046425;28;42815;-84
2023/12/28 04:39:40;;;;;;;;;;;18.70;61.80;;;;;;5045974;28;44143;-85
2023/12/28 04:42:06;;;;;;;;;;;18.70;61.70;;;;;;5046442;28;43069;-85
2023/12/28 04:44:31;;;;;;;;;;;18.70;61.80;;;;;;5046017;28;42923;-85
2023/12/28 04:46:57;;;;;;;;;;;18.60;61.60;;;;;;5046745;28;43113;-83
2023/12/28 04:49:22;;;;;;;;;;;18.60;61.60;;;;;;5046736;28;42921;-83
2023/12/28 04:51:48;;;;;;;;;;;18.60;61.60;;;;;;5048404;28;43098;-86
2023/12/28 04:54:13;;;;;;;;;;;18.60;61.50;;;;;;5054384;28;43413;-84
2023/12/28 04:56:38;;;;;;;;;;;18.80;61.70;;;;;;5046916;28;42847;-85
2023/12/28 04:59:04;;;;;;;;;;;18.60;61.50;;;;;;5046901;28;42804;-82
2023/12/28 05:01:32;;;;;;;;;;;18.70;61.60;;;;;;5045900;28;42974;-86
2023/12/28 05:03:58;;;;;;;;;;;18.70;61.60;;;;;;5046209;28;43541;-87
2023/12/28 05:06:23;;;;;;;;;;;18.70;61.50;;;;;;5045444;28;43376;-86
2023/12/28 05:08:49;;;;;;;;;;;18.50;61.50;;;;;;5039929;28;43248;-82
2023/12/28 05:11:14;;;;;;;;;;;18.70;61.50;;;;;;5032275;28;44205;-81
2023/12/28 05:13:40;;;;;;;;;;;18.70;61.50;;;;;;5037475;28;43719;-84
2023/12/28 05:16:05;;;;;;;;;;;18.60;61.90;;;;;;5032418;28;42946;-83
2023/12/28 05:18:31;;;;;;;;;;;18.50;61.40;;;;;;5046103;28;43137;-83
2023/12/28 05:20:56;;;;;;;;;;;18.60;61.30;;;;;;5045216;28;42885;-83
2023/12/28 05:23:22;;;;;;;;;;;18.50;62.00;;;;;;5045588;28;43138;-83
2023/12/28 05:25:48;;;;;;;;;;;18.70;62.00;;;;;;5045895;28;43004;-82
2023/12/28 05:28:13;;;;;;;;;;;18.80;61.60;;;;;;5045778;28;43749;-83
2023/12/28 05:30:39;;;;;;;;;;;18.60;61.50;;;;;;5043998;28;43030;-82
2023/12/28 05:33:04;;;;;;;;;;;18.70;61.50;;;;;;5042607;28;44277;-80
2023/12/28 05:35:30;;;;;;;;;;;18.60;61.30;;;;;;5045573;28;43065;-83
2023/12/28 05:37:56;;;;;;;;;;;18.60;61.40;;;;;;5043787;28;42935;-81
2023/12/28 05:40:22;;;;;;;;;;;18.60;61.50;;;;;;5045716;28;43205;-83
2023/12/28 05:42:48;;;;;;;;;;;18.70;61.40;;;;;;5045085;28;43781;-79
2023/12/28 05:45:13;;;;;;;;;;;18.60;61.80;;;;;;5043139;28;42970;-80
2023/12/28 05:47:39;;;;;;;;;;;18.60;61.30;;;;;;5044289;28;42944;-81
2023/12/28 05:50:05;;;;;;;;;;;18.50;61.30;;;;;;5045531;28;44059;-79
2023/12/28 05:52:31;;;;;;;;;;;;;;;;;;5045166;28;43068;-80
2023/12/28 05:54:57;;;;;;;;;;;18.70;61.40;;;;;;5046046;28;43010;-80
2023/12/28 05:57:22;;;;;;;;;;;18.60;61.20;;;;;;5043446;28;44998;-81
2023/12/28 05:59:48;;;;;;;;;;;18.80;61.40;;;;;;5045742;28;43026;-80
2023/12/28 06:02:13;;;;;;;;;;;18.60;61.30;;;;;;5044333;28;44038;-81
2023/12/28 06:04:39;;;;;;;;;;;18.70;61.90;;;;;;5042567;28;42981;-79
2023/12/28 06:07:04;;;;;;;;;;;18.70;61.20;;;;;;5043017;28;43808;-79
2023/12/28 06:09:30;;;;;;;;;;;18.50;61.60;;;;;;5039996;28;43577;-77
2023/12/28 06:11:56;;;;;;;;;;;18.60;61.40;;;;;;5043867;28;43401;-79
2023/12/28 06:14:21;;;;;;;;;;;18.60;61.10;;;;;;5045004;28;43057;-82
2023/12/28 06:16:47;;;;;;;;;;;18.60;61.20;;;;;;5035709;28;42958;-78
2023/12/28 06:19:12;;;;;;;;;;;18.70;61.20;;;;;;5044847;28;43006;-79
2023/12/28 06:21:38;;;;;;;;;;;18.60;61.10;;;;;;5044755;28;43553;-79
2023/12/28 06:24:04;;;;;;;;;;;18.60;61.80;;;;;;5044724;28;43278;-79
2023/12/28 06:26:29;;;;;;;;;;;18.60;61.20;;;;;;5034209;28;43881;-79
2023/12/28 06:28:55;;;;;;;;;;;18.60;61.20;;;;;;5043809;28;42906;-79
2023/12/28 06:31:20;;;;;;;;;;;18.70;61.20;;;;;;5032890;28;43494;-80
2023/12/28 06:33:46;;;;;;;;;;;18.60;61.20;;;;;;5038768;28;42828;-79
2023/12/28 06:36:12;;;;;;;;;;;18.50;61.60;;;;;;5040949;28;43368;-80
2023/12/28 06:38:37;;;;;;;;;;;18.60;61.10;;;;;;5044302;28;43016;-79
2023/12/28 06:41:09;;;;;;;;;;;18.60;61.70;;;;;;5045222;28;43088;-81
2023/12/28 06:43:35;;;;;;;;;;;18.50;61.50;;;;;;5044864;28;43105;-80
2023/12/28 06:46:00;;;;;;;;;;;18.60;61.10;;;;;;5042155;28;42957;-81
2023/12/28 06:48:26;;;;;;;;;;;18.70;61.40;;;;;;5040832;28;42942;-78
2023/12/28 06:50:52;;;;;;;;;;;18.70;61.70;;;;;;5039000;28;46085;-76
2023/12/28 06:53:17;;;;;;;;;;;18.60;61.20;;;;;;5038656;28;43758;-78
2023/12/28 06:55:43;;;;;;;;;;;18.70;61.30;;;;;;5033647;28;43022;-80
2023/12/28 06:58:08;;;;;;;;;;;18.60;61.00;;;;;;5036708;28;43756;-76
2023/12/28 07:00:34;;;;;;;;;;;19.00;61.80;;;;;;5042666;28;43459;-75
2023/12/28 07:03:00;;;;;;;;;;;18.60;61.50;;;;;;5038697;28;42848;-79
2023/12/28 07:05:25;;;;;;;;;;;18.60;61.10;;;;;;5038552;28;42909;-78
2023/12/28 07:07:53;;;;;;;;;;;18.70;59.30;;;;;;5030783;28;61037;-79
2023/12/28 07:10:18;;;;;;;;;;;19.10;61.30;;;;;;5038998;28;43049;-79
2023/12/28 07:12:44;;;;;;;;;;;18.40;61.30;;;;;;5048293;28;43344;-79
2023/12/28 07:15:13;;;;;;;;;;;18.60;61.50;;;;;;5037733;28;43498;-80
2023/12/28 07:17:39;;;;;;;;;;;18.70;61.10;;;;;;5031346;28;43292;-80
2023/12/28 07:20:05;;;;;;;;;;;18.50;61.30;;;;;;5039203;28;43372;-80
2023/12/28 07:22:30;;;;;;;;;;;18.70;61.10;;;;;;5039717;28;43250;-79
2023/12/28 07:24:55;;;;;;;;;;;18.50;60.80;;;;;;5041844;28;43983;-83
2023/12/28 07:27:21;;;;;;;;;;;18.40;61.30;;;;;;5042662;28;43605;-75
2023/12/28 07:29:46;;;;;;;;;;;18.50;61.30;;;;;;5044122;28;43670;-79
2023/12/28 07:32:12;;;;;;;;;;;18.60;60.70;;;;;;5031708;28;42949;-79
2023/12/28 07:34:38;;;;;;;;;;;18.60;60.60;;;;;;5037490;28;45038;-80
2023/12/28 07:37:04;;;;;;;;;;;18.50;60.50;;;;;;5032009;28;43076;-81
2023/12/28 07:39:29;;;;;;;;;;;18.50;60.50;;;;;;5037634;28;44770;-80
2023/12/28 07:41:55;;;;;;;;;;;18.50;58.80;;;;;;5035810;28;42923;-85
2023/12/28 07:44:20;;;;;;;;;;;18.50;51.00;;;;;;5035455;28;43274;-88
2023/12/28 07:46:46;;;;;;;;;;;18.30;50.10;;;;;;5042530;28;43047;-90
2023/12/28 07:49:11;;;;;;;;;;;18.00;49.20;;;;;;5048699;28;43607;-81
2023/12/28 07:51:37;;;;;;;;;;;17.90;51.30;;;;;;5044927;28;43054;-86
2023/12/28 07:54:02;;;;;;;;;;;17.90;52.20;;;;;;5046304;28;43121;-83
2023/12/28 07:56:28;;;;;;;;;;;18.00;51.40;;;;;;5047049;28;43234;-83
2023/12/28 07:58:53;;;;;;;;;;;18.00;53.10;;;;;;5043419;28;43056;-83
2023/12/28 08:01:20;;;;;;;;;;;17.90;54.30;;;;;;5046716;28;42963;-83
2023/12/28 08:03:45;;;;;;;;;;;18.20;55.90;;;;;;5047509;28;43110;-91
2023/12/28 08:06:12;;;;;;;;;;;18.00;56.20;;;;;;5044726;28;42964;-86
2023/12/28 08:08:38;;;;;;;;;;;18.10;56.60;;;;;;5028907;28;42968;-86
2023/12/28 08:11:03;;;;;;;;;;;18.30;56.80;;;;;;5026981;28;42893;-85
2023/12/28 08:13:29;;;;;;;;;;;18.30;57.30;;;;;;5031082;28;43606;-94
2023/12/28 08:16:00;;;;;;;;;;;18.10;58.10;;;;;;5036566;28;42377;-89
2023/12/28 08:18:26;;;;;;;;;;;18.30;58.30;;;;;;5056169;28;42861;-86
2023/12/28 08:20:51;;;;;;;;;;;18.40;58.40;;;;;;5036727;28;43047;-83
2023/12/28 08:23:17;;;;;;;;;;;18.30;58.40;;;;;;5038100;28;42994;-84
2023/12/28 08:25:43;;;;;;;;;;;18.50;58.80;;;;;;5025467;28;42910;-83
2023/12/28 08:28:08;;;;;;;;;;;18.50;59.10;;;;;;5027330;28;43669;-83
2023/12/28 08:30:34;;;;;;;;;;;18.30;59.30;;;;;;5028057;28;43188;-83
2023/12/28 08:32:59;;;;;;;;;;;18.40;59.70;;;;;;5036686;28;42933;-83
2023/12/28 08:35:25;;;;;;;;;;;18.40;59.70;;;;;;5027116;28;42924;-83
2023/12/28 08:37:50;;;;;;;;;;;18.40;59.90;;;;;;5029131;28;43644;-83
2023/12/28 08:40:16;;;;;;;;;;;18.40;60.00;;;;;;5027455;28;43116;-83
2023/12/28 08:42:41;;;;;;;;;;;18.40;60.20;;;;;;5028073;28;44081;-85
2023/12/28 08:45:07;;;;;;;;;;;18.50;60.40;;;;;;5030131;28;43195;-83
2023/12/28 08:47:32;;;;;;;;;;;18.30;60.50;;;;;;5029186;28;43824;-83
2023/12/28 08:49:58;;;;;;;;;;;18.50;60.80;;;;;;5027245;28;42793;-83
2023/12/28 08:52:23;;;;;;;;;;;18.50;60.90;;;;;;5030504;28;43486;-83
2023/12/28 08:54:49;;;;;;;;;;;18.50;61.00;;;;;;5034766;28;42866;-83
2023/12/28 08:57:14;;;;;;;;;;;18.40;61.10;;;;;;5046543;28;43164;-84
2023/12/28 08:59:40;;;;;;;;;;;18.40;61.10;;;;;;5046227;28;42900;-84
2023/12/28 09:02:07;;;;;;;;;;;18.40;61.30;;;;;;5043922;28;42906;-83
2023/12/28 09:04:32;;;;;;;;;;;18.40;61.40;;;;;;5045771;28;42965;-83
2023/12/28 09:06:58;;;;;;;;;;;18.40;61.70;;;;;;5046878;28;43042;-83
2023/12/28 09:09:24;;;;;;;;;;;18.40;61.70;;;;;;5046694;28;43010;-83
2023/12/28 09:11:49;;;;;;;;;;;18.30;61.60;;;;;;5044686;28;42984;-83
2023/12/28 09:14:14;;;;;;;;;;;18.40;62.00;;;;;;5027296;28;43116;-83
2023/12/28 09:16:42;;;;;;;;;;;18.40;61.80;;;;;;5025900;28;43445;-83
2023/12/28 09:19:07;;;;;;;;;;;18.40;61.80;;;;;;5027265;28;42931;-83
2023/12/28 09:21:32;;;;;;;;;;;18.40;62.00;;;;;;5027422;28;42772;-83
2023/12/28 09:23:58;;;;;;;;;;;18.40;62.20;;;;;;5026404;28;43106;-83
2023/12/28 09:26:23;;;;;;;;;;;18.40;62.40;;;;;;5027140;28;43690;-83
2023/12/28 09:28:49;;;;;;;;;;;18.40;62.50;;;;;;5024986;28;42866;-83
2023/12/28 09:31:14;;;;;;;;;;;18.50;62.40;;;;;;5047428;28;43517;-83
2023/12/28 09:33:40;;;;;;;;;;;18.50;62.60;;;;;;5046316;28;43262;-83
2023/12/28 09:36:06;;;;;;;;;;;18.50;62.60;;;;;;5043986;28;43999;-84
2023/12/28 09:38:31;;;;;;;;;;;18.50;62.70;;;;;;5025474;28;43114;-84
2023/12/28 09:40:58;;;;;;;;;;;18.50;62.80;;;;;;5026625;28;42946;-83
2023/12/28 09:43:25;;;;;;;;;;;18.40;62.70;;;;;;5026603;28;42914;-83
2023/12/28 09:45:50;;;;;;;;;;;18.20;62.60;;;;;;5024055;28;44895;-83
2023/12/28 09:48:17;;;;;;;;;;;18.50;62.90;;;;;;5023926;28;43159;-83
2023/12/28 09:50:43;;;;;;;;;;;18.40;62.90;;;;;;5023426;28;43746;-83
2023/12/28 09:53:08;;;;;;;;;;;18.30;62.80;;;;;;5027134;28;43408;-83
2023/12/28 09:55:34;;;;;;;;;;;18.40;63.00;;;;;;5025760;28;43553;-83
2023/12/28 09:58:00;;;;;;;;;;;18.60;63.30;;;;;;5025776;28;42880;-83
2023/12/28 10:00:25;;;;;;;;;;;18.50;63.20;;;;;;5027028;28;43005;-83
2023/12/28 10:02:51;;;;;;;;;;;18.30;63.30;;;;;;5040030;28;43006;-83
2023/12/28 10:05:16;;;;;;;;;;;18.40;63.50;;;;;;5045231;28;43626;-83
2023/12/28 10:07:45;;;;;;;;;;;18.20;63.30;;;;;;5044312;28;42846;-83
2023/12/28 10:10:11;;;;;;;;;;;18.20;63.50;;;;;;5045834;28;44043;-83
2023/12/28 10:12:39;;;;;;;;;;;18.40;63.60;;;;;;5033209;28;42912;-83
2023/12/28 10:15:05;;;;;;;;;;;18.30;63.60;;;;;;5025571;28;43658;-83
2023/12/28 10:17:35;;;;;;;;;;;18.30;63.70;;;;;;5025812;28;42818;-83
2023/12/28 10:20:04;;;;;;;;;;;18.40;63.90;;;;;;5026599;28;43400;-83
2023/12/28 10:22:30;;;;;;;;;;;18.40;63.80;;;;;;5034890;28;42958;-83
2023/12/28 10:24:56;;;;;;;;;;;18.50;64.00;;;;;;5025500;28;43405;-84
2023/12/28 10:27:21;;;;;;;;;;;18.30;63.80;;;;;;5027310;28;43020;-83
2023/12/28 10:29:47;;;;;;;;;;;18.30;63.80;;;;;;5024614;28;44009;-84
2023/12/28 10:32:13;;;;;;;;;;;18.30;63.90;;;;;;5037951;28;43122;-84
2023/12/28 10:34:39;;;;;;;;;;;18.50;64.00;;;;;;5037248;28;44815;-84
2023/12/28 10:37:05;;;;;;;;;;;18.30;64.00;;;;;;5045644;28;42939;-84
2023/12/28 10:39:32;;;;;;;;;;;18.50;64.20;;;;;;5042025;28;43636;-83
2023/12/28 10:41:59;;;;;;;;;;;18.50;64.30;;;;;;5042982;28;42921;-85
2023/12/28 10:44:27;;;;;;;;;;;18.30;64.20;;;;;;5044212;28;43798;-84
2023/12/28 10:46:56;;;;;;;;;;;18.40;64.30;;;;;;5041568;28;42999;-83
2023/12/28 10:49:23;;;;;;;;;;;18.30;64.20;;;;;;5043351;28;42891;-83
2023/12/28 10:51:51;;;;;;;;;;;18.40;64.30;;;;;;5041751;28;42951;-84
2023/12/28 10:54:35;;;;;;;;;;;18.30;64.30;;;;;;5042080;28;42925;-84
2023/12/28 10:57:09;;;;;;;;;;;18.50;64.30;;;;;;5026802;28;43141;-84
2023/12/28 10:59:41;;;;;;;;;;;18.40;64.40;;;;;;5042773;28;43248;-83
2023/12/28 11:02:08;;;;;;;;;;;18.30;64.00;;;;;;5045283;28;43045;-84
2023/12/28 11:04:38;;;;;;;;;;;18.40;64.20;;;;;;5043391;28;42965;-83
2023/12/28 11:07:04;;;;;;;;;;;18.40;64.10;;;;;;5043682;28;43055;-83
2023/12/28 11:09:30;;;;;;;;;;;18.30;64.30;;;;;;5029845;28;43015;-84
2023/12/28 11:11:59;;;;;;;;;;;18.40;64.40;;;;;;5024293;28;42960;-84
2023/12/28 11:14:24;;;;;;;;;;;18.40;64.30;;;;;;5026333;28;43423;-84
2023/12/28 11:16:50;;;;;;;;;;;18.40;64.50;;;;;;5032870;28;43249;-83
2023/12/28 11:19:16;;;;;;;;;;;18.50;64.40;;;;;;5031144;28;45171;-85
2023/12/28 11:21:42;;;;;;;;;;;18.30;64.40;;;;;;5024349;28;42946;-84
2023/12/28 11:24:09;;;;;;;;;;;18.50;64.40;;;;;;5025775;28;43838;-83
2023/12/28 11:26:34;;;;;;;;;;;18.40;64.30;;;;;;5028025;28;43542;-83
2023/12/28 11:29:03;;;;;;;;;;;18.40;64.30;;;;;;5042367;28;43072;-83
2023/12/28 11:31:32;;;;;;;;;;;18.40;64.30;;;;;;5046803;28;43158;-83
2023/12/28 11:33:58;;;;;;;;;;;18.30;64.30;;;;;;5048311;28;43583;-85
2023/12/28 11:36:38;;;;;;;;;;;18.50;64.40;;;;;;5048644;28;42921;-83
2023/12/28 11:39:06;;;;;;;;;;;18.30;64.40;;;;;;5044229;28;42912;-83
2023/12/28 11:41:32;;;;;;;;;;;18.50;64.50;;;;;;5044612;28;42995;-84
2023/12/28 11:44:02;;;;;;;;;;;18.30;64.40;;;;;;5046738;28;44608;-84
2023/12/28 11:46:29;;;;;;;;;;;18.40;64.50;;;;;;5045605;28;43003;-84
2023/12/28 11:49:02;;;;;;;;;;;18.40;64.50;;;;;;5052438;28;43747;-84
2023/12/28 11:54:03;;;;;;;;;;;18.30;64.30;;;;;;5054775;22;42922;-84
2023/12/28 11:56:29;;;;;;;;;;;18.40;64.10;;;;;;5048351;28;42974;-85
2023/12/28 11:58:54;;;;;;;;;;;18.40;64.30;;;;;;5045020;28;45560;-85
2023/12/28 12:01:20;;;;;;;;;;;18.40;64.10;;;;;;5046408;28;42915;-85
2023/12/28 12:03:45;;;;;;;;;;;18.40;64.10;;;;;;5041381;28;43486;-84
2023/12/28 12:06:11;;;;;;;;;;;18.30;64.10;;;;;;5026496;28;42815;-85
2023/12/28 12:08:36;;;;;;;;;;;18.40;64.20;;;;;;5028792;28;43531;-84
2023/12/28 12:11:04;;;;;;;;;;;18.40;64.20;;;;;;5027357;28;43046;-84
2023/12/28 12:13:30;;;;;;;;;;;18.30;64.20;;;;;;5028053;28;43107;-83
2023/12/28 12:15:56;;;;;;;;;;;18.20;64.20;;;;;;5027504;28;43094;-83
2023/12/28 12:18:22;;;;;;;;;;;18.30;64.10;;;;;;5028569;28;44521;-84
2023/12/28 12:20:48;;;;;;;;;;;18.30;64.10;;;;;;5045688;28;43060;-84
2023/12/28 12:23:14;;;;;;;;;;;18.40;64.20;;;;;;5027811;28;42970;-83
2023/12/28 12:25:40;;;;;;;;;;;18.20;64.10;;;;;;5027576;28;42936;-83
2023/12/28 12:28:06;;;;;;;;;;;18.20;64.10;;;;;;5028315;28;42843;-83
2023/12/28 12:30:32;;;;;;;;;;;18.30;64.20;;;;;;5025943;28;43102;-83
2023/12/28 12:32:57;;;;;;;;;;;18.30;64.10;;;;;;5027220;28;42935;-83
2023/12/28 12:35:23;;;;;;;;;;;18.50;64.30;;;;;;5026145;28;42931;-83
2023/12/28 12:37:51;;;;;;;;;;;18.20;64.20;;;;;;5027608;28;43187;-83
2023/12/28 12:40:19;;;;;;;;;;;18.40;64.20;;;;;;5027547;28;42972;-84
2023/12/28 12:42:54;;;;;;;;;;;18.20;64.00;;;;;;5026565;28;42933;-83
2023/12/28 12:45:21;;;;;;;;;;;18.30;64.10;;;;;;5027390;28;42964;-83
2023/12/28 12:47:47;;;;;;;;;;;18.40;64.30;;;;;;5027035;28;42883;-85
2023/12/28 12:50:18;;;;;;;;;;;18.30;63.50;;;;;;5027846;28;42890;-83
2023/12/28 12:52:45;;;;;;;;;;;18.40;64.10;;;;;;5027019;28;42973;-83
2023/12/28 12:55:11;;;;;;;;;;;18.30;64.00;;;;;;5028286;28;42773;-84
2023/12/28 12:57:38;;;;;;;;;;;18.30;64.00;;;;;;5037436;28;44746;-84
2023/12/28 13:00:07;;;;;;;;;;;18.30;63.90;;;;;;5044753;28;42890;-83
2023/12/28 13:02:33;;;;;;;;;;;18.30;64.00;;;;;;5046005;28;42979;-83
2023/12/28 13:04:59;;;;;;;;;;;18.40;64.00;;;;;;5045995;28;43001;-83
2023/12/28 13:07:25;;;;;;;;;;;18.20;63.80;;;;;;5037030;28;42979;-83
2023/12/28 13:09:50;;;;;;;;;;;18.30;63.80;;;;;;5026093;28;43034;-83
2023/12/28 13:12:16;;;;;;;;;;;18.20;63.40;;;;;;5026930;28;43614;-84
2023/12/28 13:14:44;;;;;;;;;;;18.40;63.80;;;;;;5024486;28;42952;-83
2023/12/28 13:17:10;;;;;;;;;;;18.50;64.00;;;;;;5032071;28;42889;-83
2023/12/28 13:19:38;;;;;;;;;;;18.50;64.00;;;;;;5046546;28;42866;-83
2023/12/28 13:22:04;;;;;;;;;;;18.30;63.90;;;;;;5046686;28;43667;-83
2023/12/28 13:24:30;;;;;;;;;;;18.40;64.10;;;;;;5045036;28;43065;-83
2023/12/28 13:26:56;;;;;;;;;;;18.30;63.90;;;;;;5045749;28;43581;-83
2023/12/28 13:29:22;;;;;;;;;;;18.40;64.10;;;;;;5033397;28;42953;-83
2023/12/28 13:31:50;;;;;;;;;;;18.40;63.90;;;;;;5025995;28;42922;-84
2023/12/28 13:34:16;;;;;;;;;;;18.30;64.30;;;;;;5035238;28;42963;-84
2023/12/28 13:36:42;;;;;;;;;;;;;;;;;;5044463;28;44564;-83
2023/12/28 13:39:11;;;;;;;;;;;18.40;63.90;;;;;;5046200;28;43128;-83
2023/12/28 13:41:37;;;;;;;;;;;18.30;63.80;;;;;;5039211;28;43614;-85
2023/12/28 13:44:03;;;;;;;;;;;18.30;63.80;;;;;;5031964;28;42975;-84
2023/12/28 13:46:30;;;;;;;;;;;18.40;63.80;;;;;;5042598;28;45530;-84
2023/12/28 13:48:56;;;;;;;;;;;18.30;63.80;;;;;;5046306;28;43023;-84
2023/12/28 13:51:22;;;;;;;;;;;17.60;63.40;;;;;;5041546;28;43217;-83
2023/12/28 13:53:48;;;;;;;;;;;18.30;63.90;;;;;;5025903;28;43038;-84
2023/12/28 13:56:13;;;;;;;;;;;18.40;63.90;;;;;;5026307;28;43254;-83
2023/12/28 13:58:39;;;;;;;;;;;18.20;63.80;;;;;;5025992;28;43002;-84
2023/12/28 14:01:04;;;;;;;;;;;18.40;63.90;;;;;;5026207;28;43055;-83
2023/12/28 14:03:30;;;;;;;;;;;18.30;63.90;;;;;;5034835;28;43027;-84
2023/12/28 14:05:56;;;;;;;;;;;18.30;63.80;;;;;;5034165;28;43491;-83
2023/12/28 14:08:21;;;;;;;;;;;18.30;63.90;;;;;;5033635;28;42903;-84
2023/12/28 14:10:47;;;;;;;;;;;18.40;63.90;;;;;;5029918;28;42995;-84
2023/12/28 14:13:12;;;;;;;;;;;18.40;63.90;;;;;;5026500;28;43068;-83
2023/12/28 14:15:38;;;;;;;;;;;18.30;63.80;;;;;;5026987;28;43729;-84